Relevés horaires Interlaken (Suisse)


Relevés horaires à Interlaken - Jeudi 27 Mai 2004
Heure UTC1 Température [°C] Vent [km/h] Hum. [%] Pres.4 [hPa] Visi. [Km] Nébu. [octa] Préc.5 [mm] Cond.
2m. Res. Ros. Dir.2 Vit. Moy. Raf.3
23:00 11.4 11.4 9.1 N 3.7 -- -- 86 1021.4 -- -- -- --
22:00 11.7 11.5 9.4 ONO 5.6 -- -- 86 1021.4 -- -- -- --
21:00 12.2 10.9 9.5 O 13.0 -- -- 84 1021.1 -- -- -- --
20:00 12.6 12.6 11.0 E 1.9 -- -- 90 1020.6 -- -- -- --
19:00 13.1 13.1 11.5 NNO 0.0 -- -- 90 1020 -- -- -- --
18:00 12.9 12.9 11.4 E 3.7 -- -- 91 1020(0.3/3h) -- -- 6/12h
--
17:00 13.3 13.3 11.4 NE 1.9 -- -- 88 1019.8 -- -- -- --
16:00 14.1 14.1 12.1 ONO 1.9 -- -- 88 1019.5 -- -- -- --
15:00 13.6 13.6 10.8 N 3.7 -- -- 83 1019.5 -- -- -- --
14:00 14.7 14.7 11.3 E 1.9 -- -- 80 1018.8 -- -- -- --
13:00 14.1 14.1 10.3 NNO 1.9 -- -- 78 1019.3 -- -- -- --
12:00 14.8 14.8 9.6 NO 5.6 -- -- 71 1019.1 -- -- 0/0h
--
11:00 15.2 15.2 10.0 ENE 5.6 -- -- 71 1019 -- -- -- --
10:00 14.7 14.6 8.8 NO 7.4 -- -- 68 1019.2 -- -- -- --
09:00 15.7 15.7 9.2 N 7.4 -- -- 65 1018.9(0.7/3h) -- -- -- --
08:00 14.1 14.1 8.7 ONO 5.6 -- -- 70 1019.1 -- -- -- --
07:00 12.6 12.6 9.8 NO 3.7 -- -- 83 1019.5 -- -- -- --
06:00 11.0 11.0 8.6 NNO 0.0 -- -- 85 1019.3(0.1/3h) -- -- 0.4/12h
--
05:00 10.2 10.2 8.2 S 1.9 -- -- 87 1019.5 -- -- -- --
04:00 9.4 9.4 7.6 SSO 3.7 -- -- 89 1019.6 -- -- -- --
03:00 9.6 9.6 7.8 NNO 0.0 -- -- 89 1019.5 -- -- -- --
02:00 10.5 10.5 8.7 NNO 0.0 -- -- 89 1019.1 -- -- -- --
01:00 9.9 9.9 8.4 SSO 3.7 -- -- 90 1019.2 -- -- -- --
00:00 10.4 10 8.6 SSO 5.6 -- -- 89 1019.3(-0.1/3h) -- -- -- --

1 Coordinated Universal Time. Actuellement il est 23:00 locale et 21:00 UTC.

2 Le vent souffle depuis la direction indiquée vers la direction oposée.

3 Les rafales max. sont disponible 40 min après l'heure du relevé.

4 Pour les stations d'altitude (plus de 600m) le géopotentiel du niveau le plus proche de la pression obligatoire est indiqué.

5 Les stations disposant d'un diffuseur peuvent indiquer "trace". Cela signifie que des précipitations ont touchés le sol mais que la quantité est inférieure à 0.1 mm.

Copyright

Les données affichées sur cette page sont la propriété exclusive de Météo Suisse.

Récapitulatif de la journée
Température [°C] Vent [km/h] Ensoleillement4 [h] Precipitations totale5 [mm] Pression [Hpa]
Min1 Max.2 Moy.3 Max. Min Max.
9.4 15.7 0 -- 2 h 12 min 11 1018.8 1021.4

1 Température minimale relevée entre 18:00 UTC la veille et 18:00 UTC le jour donné.

2 Température maximale relevée entre 06:00 UTC le jour donné et 06:00 UTC le lendemain.

3 Vent moyen de la journée basé sur les relevés horaires.

4 Ensoleillement en heures relevé entre 06:00 UTC la veille et 06:00 UTC le jour donné.

5 Précipitations totales tombées entre 06:00 UTC la jour donné et 06:00 UTC le lendemain.

Graphiques horaires